createdAt,value
2017-12-05T00:00:42.778Z,5.80
2017-12-05T00:03:11.017Z,7.50
2017-12-05T00:05:39.301Z,7.00
2017-12-05T00:08:07.526Z,7.00
2017-12-05T00:10:35.783Z,7.27
2017-12-05T00:13:04.101Z,5.53
2017-12-05T00:15:32.376Z,7.20
2017-12-05T00:18:00.598Z,6.93
2017-12-05T00:20:28.920Z,5.73
2017-12-05T00:22:57.218Z,6.47
2017-12-05T00:25:25.467Z,6.07
2017-12-05T00:27:54.530Z,7.57
2017-12-05T00:30:22.800Z,6.33
2017-12-05T00:32:51.077Z,7.50
2017-12-05T00:35:19.453Z,7.23
2017-12-05T00:37:47.686Z,6.53
2017-12-05T00:40:15.971Z,7.27
2017-12-05T00:42:44.310Z,6.90
2017-12-05T00:45:13.323Z,5.57
2017-12-05T00:47:41.554Z,5.93
2017-12-05T00:50:09.916Z,6.37
2017-12-05T00:52:38.142Z,7.67
2017-12-05T00:55:07.163Z,7.27
2017-12-05T00:57:36.218Z,7.03
2017-12-05T01:00:05.204Z,6.47
2017-12-05T01:02:33.426Z,6.63
2017-12-05T01:05:01.715Z,6.27
2017-12-05T01:07:29.991Z,5.27
2017-12-05T01:09:58.208Z,5.47
2017-12-05T01:12:26.531Z,7.63
2017-12-05T01:14:54.767Z,5.53
2017-12-05T01:17:23.813Z,5.40
2017-12-05T01:19:52.128Z,6.70
2017-12-05T01:22:21.146Z,5.07
2017-12-05T01:24:49.393Z,5.20
2017-12-05T01:27:17.719Z,5.70
2017-12-05T01:29:45.934Z,6.50
2017-12-05T01:32:14.158Z,7.43
2017-12-05T01:34:42.544Z,6.10
2017-12-05T01:37:11.117Z,6.53
2017-12-05T01:39:39.354Z,5.83
2017-12-05T01:42:07.633Z,5.90
2017-12-05T01:44:35.880Z,7.30
2017-12-05T01:47:04.124Z,6.67
2017-12-05T01:49:32.456Z,6.87
2017-12-05T01:52:00.692Z,5.90
2017-12-05T01:54:28.952Z,6.47
2017-12-05T01:56:57.253Z,6.10
2017-12-05T01:59:25.578Z,6.80
2017-12-05T02:01:53.819Z,6.50
2017-12-05T02:04:22.131Z,5.60
2017-12-05T02:06:50.392Z,6.00
2017-12-05T02:09:19.526Z,6.07
2017-12-05T02:11:47.838Z,5.77
2017-12-05T02:14:16.086Z,7.77
2017-12-05T02:16:44.342Z,6.73
2017-12-05T02:19:12.639Z,6.87
2017-12-05T02:21:41.650Z,6.50
2017-12-05T02:24:09.929Z,7.20
2017-12-05T02:26:38.165Z,6.90
2017-12-05T02:29:06.436Z,7.33
2017-12-05T02:31:34.752Z,7.20
2017-12-05T02:34:03.011Z,8.20
2017-12-05T02:36:31.275Z,8.83
2017-12-05T02:38:59.570Z,7.60
2017-12-05T02:41:27.816Z,10.67
2017-12-05T02:43:56.062Z,11.63
2017-12-05T02:46:24.389Z,7.50
2017-12-05T02:48:52.661Z,8.80
2017-12-05T02:51:20.934Z,12.60
2017-12-05T02:53:49.332Z,12.87
2017-12-05T02:56:17.572Z,11.67
2017-12-05T02:58:45.826Z,8.73
2017-12-05T03:01:14.122Z,11.40
2017-12-05T03:03:42.354Z,10.53
2017-12-05T03:06:10.585Z,7.53
2017-12-05T03:08:38.890Z,7.97
2017-12-05T03:11:07.121Z,8.53
2017-12-05T03:13:35.349Z,11.30
2017-12-05T03:16:03.729Z,8.50
2017-12-05T03:18:31.996Z,7.70
2017-12-05T03:21:00.243Z,8.93
2017-12-05T03:23:28.555Z,10.50
2017-12-05T03:25:56.793Z,9.43
2017-12-05T03:28:25.021Z,9.33
2017-12-05T03:30:53.372Z,9.03
2017-12-05T03:33:21.644Z,9.60
2017-12-05T03:35:49.890Z,10.07
2017-12-05T03:38:18.197Z,11.33
2017-12-05T03:40:47.133Z,9.53
2017-12-05T03:43:16.149Z,10.57
2017-12-05T03:45:44.438Z,10.00
2017-12-05T03:48:12.702Z,9.40
2017-12-05T03:50:41.033Z,10.30
2017-12-05T03:53:09.315Z,8.23
2017-12-05T03:55:38.344Z,8.87
2017-12-05T03:58:06.664Z,9.83
2017-12-05T04:00:34.940Z,10.50
2017-12-05T04:03:03.238Z,10.87
2017-12-05T04:05:32.321Z,10.70
2017-12-05T04:08:00.558Z,8.90
2017-12-05T04:10:28.802Z,9.80
2017-12-05T04:12:57.892Z,11.10
2017-12-05T04:15:26.930Z,11.40
2017-12-05T04:17:55.168Z,10.80
2017-12-05T04:20:23.499Z,10.97
2017-12-05T04:22:51.737Z,10.00
2017-12-05T04:25:19.987Z,8.67
2017-12-05T04:27:49.012Z,10.00
2017-12-05T12:47:57.331Z,9.27
2017-12-05T12:50:25.612Z,10.80
2017-12-05T12:52:53.854Z,11.67
2017-12-05T12:55:22.253Z,11.30
2017-12-05T12:57:50.477Z,10.43
2017-12-05T13:00:18.709Z,11.30
2017-12-05T13:02:47.009Z,14.47
2017-12-05T13:05:15.315Z,12.77
2017-12-05T13:07:43.569Z,10.47
2017-12-05T13:10:11.875Z,10.10
2017-12-05T13:12:40.111Z,9.73
2017-12-05T13:15:08.409Z,10.87
2017-12-05T13:17:36.719Z,7.40
2017-12-05T13:20:04.978Z,12.63
2017-12-05T13:22:33.245Z,10.03
2017-12-05T13:25:01.555Z,8.80
2017-12-05T13:27:29.835Z,9.60
2017-12-05T13:29:58.113Z,12.00
2017-12-05T13:32:26.510Z,15.13
2017-12-05T13:34:54.783Z,13.20
2017-12-05T13:37:23.055Z,10.43
2017-12-05T13:39:51.396Z,13.00
2017-12-05T13:42:19.678Z,13.57
2017-12-05T13:44:47.966Z,12.73
2017-12-05T13:47:17.035Z,10.90
2017-12-05T13:49:45.270Z,13.67
2017-12-05T13:52:13.538Z,9.10
2017-12-05T13:54:41.941Z,11.50
2017-12-05T13:57:10.244Z,14.03
2017-12-05T13:59:38.503Z,11.37
2017-12-05T14:02:06.817Z,11.60
2017-12-05T14:04:35.823Z,10.90
2017-12-05T14:07:04.093Z,9.33
2017-12-05T14:09:32.375Z,8.17
2017-12-05T14:12:00.741Z,9.23
2017-12-05T14:14:29.738Z,15.70
2017-12-05T14:16:57.979Z,13.13
2017-12-05T14:19:26.317Z,14.00
2017-12-05T14:21:54.589Z,13.70
2017-12-05T14:24:22.901Z,13.53
2017-12-05T14:26:51.131Z,15.60
2017-12-05T14:29:19.605Z,15.83
2017-12-05T14:31:47.898Z,15.00
2017-12-05T14:34:16.227Z,15.77
2017-12-05T14:36:44.497Z,16.70
2017-12-05T14:39:12.807Z,13.10
2017-12-05T14:41:41.097Z,16.60
2017-12-05T14:44:09.358Z,13.37
2017-12-05T14:46:37.682Z,11.77
2017-12-05T14:49:05.981Z,14.60
2017-12-05T14:51:34.260Z,14.63
2017-12-05T14:54:02.610Z,15.67
2017-12-05T14:56:30.886Z,15.43
2017-12-05T14:58:59.134Z,13.20
2017-12-05T15:01:27.506Z,13.93
2017-12-05T15:03:55.772Z,12.13
2017-12-05T15:06:24.109Z,12.33
2017-12-05T15:08:52.443Z,12.53
2017-12-05T15:11:20.769Z,12.03
2017-12-05T15:13:49.130Z,12.70
2017-12-05T15:16:17.648Z,13.00
2017-12-05T15:18:46.012Z,14.33
2017-12-05T15:21:14.310Z,12.53
2017-12-05T15:23:42.673Z,13.73
2017-12-05T15:26:11.045Z,11.70
2017-12-05T15:28:40.069Z,12.33
2017-12-05T15:31:08.453Z,10.13
2017-12-05T15:33:36.705Z,12.13
2017-12-05T15:36:05.731Z,11.27
2017-12-05T15:38:34.098Z,14.30
2017-12-05T15:41:02.348Z,14.37
2017-12-05T15:43:31.344Z,11.20
2017-12-05T15:46:00.460Z,12.33
2017-12-05T15:48:28.694Z,13.10
2017-12-05T15:50:57.776Z,12.00
2017-12-05T15:53:26.192Z,12.30
2017-12-05T15:55:55.182Z,11.93
2017-12-05T15:58:23.466Z,11.53
2017-12-05T16:00:51.785Z,10.63
2017-12-05T16:03:20.789Z,11.43
2017-12-05T16:05:49.125Z,12.80
2017-12-05T16:08:17.421Z,11.00
2017-12-05T16:10:45.695Z,9.80
2017-12-05T16:13:13.945Z,12.73
2017-12-05T16:15:42.235Z,10.37
2017-12-05T16:18:10.535Z,13.30
2017-12-05T16:20:38.788Z,11.63
2017-12-05T16:23:07.149Z,14.00
2017-12-05T16:25:35.415Z,14.20
2017-12-05T16:28:03.712Z,14.63
2017-12-05T16:30:32.021Z,13.10
2017-12-05T16:33:00.296Z,17.80
2017-12-05T16:35:28.519Z,13.10
2017-12-05T16:37:57.701Z,12.67
2017-12-05T16:40:25.977Z,14.30
2017-12-05T16:42:55.096Z,15.73
2017-12-05T16:45:23.504Z,14.77
2017-12-05T16:47:51.857Z,15.50
2017-12-05T16:50:20.098Z,14.37
2017-12-05T16:52:48.458Z,13.87
2017-12-05T16:55:17.526Z,13.90
2017-12-05T16:57:45.773Z,16.60
2017-12-05T17:00:14.122Z,17.97
2017-12-05T17:02:42.384Z,15.00
2017-12-05T17:05:10.674Z,14.83
2017-12-05T17:07:39.755Z,14.10
2017-12-05T17:10:07.999Z,14.70
2017-12-05T17:12:36.268Z,15.00
2017-12-05T17:15:04.561Z,14.70
2017-12-05T17:17:32.897Z,12.67
2017-12-05T17:20:01.938Z,14.40
2017-12-05T17:22:30.330Z,15.87
2017-12-05T17:24:58.676Z,14.80
2017-12-05T17:27:28.408Z,15.20
2017-12-05T17:29:56.803Z,15.37
2017-12-05T17:32:25.160Z,14.27
2017-12-05T17:34:53.481Z,13.10
2017-12-05T17:37:21.799Z,15.63
2017-12-05T17:39:50.069Z,15.47
2017-12-05T17:42:19.120Z,15.93
2017-12-05T17:44:47.531Z,16.90
2017-12-05T17:47:15.863Z,17.03
2017-12-05T17:49:44.139Z,17.83
2017-12-05T17:52:12.449Z,18.40
2017-12-05T17:54:40.707Z,16.50
2017-12-05T17:57:09.062Z,16.80
2017-12-05T17:59:37.405Z,17.17
2017-12-05T18:02:05.659Z,17.27
2017-12-05T18:04:33.928Z,15.73
2017-12-05T18:07:02.228Z,17.37
2017-12-05T18:09:30.534Z,16.50
2017-12-05T18:11:58.803Z,16.40
2017-12-05T18:14:27.122Z,15.43
2017-12-05T18:16:56.190Z,16.53
2017-12-05T18:19:24.636Z,16.07
2017-12-05T18:21:53.101Z,15.37
2017-12-05T18:24:21.388Z,17.17
2017-12-05T18:26:49.668Z,15.70
2017-12-05T18:29:18.073Z,16.03
2017-12-05T18:31:47.131Z,16.20
2017-12-05T18:34:15.370Z,14.70
2017-12-05T18:36:45.248Z,17.80
2017-12-05T18:39:13.504Z,16.97
2017-12-05T18:41:41.753Z,17.83
2017-12-05T18:44:10.170Z,14.93
2017-12-05T18:46:38.416Z,15.80
2017-12-05T18:49:06.665Z,18.80
2017-12-05T18:51:35.801Z,17.67
2017-12-05T18:54:04.055Z,18.87
2017-12-05T18:56:32.391Z,17.77
2017-12-05T18:59:00.835Z,19.97
2017-12-05T19:01:29.077Z,18.27
2017-12-05T19:03:58.091Z,19.00
2017-12-05T19:06:26.498Z,15.90
2017-12-05T19:08:54.751Z,17.57
2017-12-05T19:11:23.025Z,17.40
2017-12-05T19:13:51.344Z,16.17
2017-12-05T19:16:19.591Z,18.73
2017-12-05T19:18:47.851Z,18.43
2017-12-05T19:21:17.052Z,17.20
2017-12-05T19:23:45.320Z,16.97
2017-12-05T19:26:13.596Z,18.27
2017-12-05T19:28:42.100Z,17.90
2017-12-05T19:31:10.385Z,18.60
2017-12-05T19:33:38.665Z,18.67
2017-12-05T19:36:07.004Z,19.93
2017-12-05T19:38:35.235Z,16.30
2017-12-05T19:41:03.491Z,16.40
2017-12-05T19:43:31.823Z,17.10
2017-12-05T19:46:00.136Z,16.23
2017-12-05T19:48:28.428Z,18.50
2017-12-05T19:50:56.829Z,18.20
2017-12-05T19:53:25.105Z,18.50
2017-12-05T19:55:54.118Z,17.87
2017-12-05T19:58:22.497Z,17.03
2017-12-05T20:00:50.877Z,18.63
2017-12-05T20:03:19.162Z,33.27
2017-12-05T20:05:47.513Z,17.17
2017-12-05T20:08:16.596Z,17.03
2017-12-05T20:10:44.886Z,14.23
2017-12-05T20:13:13.321Z,15.40
2017-12-05T20:15:41.688Z,15.10
2017-12-05T20:18:09.961Z,15.27
2017-12-05T20:20:38.329Z,18.53
2017-12-05T20:23:07.443Z,17.27
2017-12-05T20:25:35.754Z,16.60
2017-12-05T20:28:04.230Z,16.27
2017-12-05T20:30:33.656Z,18.73
2017-12-05T20:33:02.964Z,16.40
2017-12-05T20:35:31.239Z,15.00
2017-12-05T20:37:59.602Z,16.07
2017-12-05T20:40:28.705Z,16.33
2017-12-05T20:42:57.746Z,18.17
2017-12-05T20:45:26.333Z,20.77
2017-12-05T20:47:54.651Z,17.00
2017-12-05T20:50:23.677Z,17.37
2017-12-05T20:52:51.934Z,14.93
2017-12-05T20:55:20.411Z,17.07
2017-12-05T20:57:50.045Z,19.60
2017-12-05T21:00:18.753Z,16.40
2017-12-05T21:02:47.004Z,17.80
2017-12-05T21:05:16.164Z,18.83
2017-12-05T21:07:45.228Z,18.40
2017-12-05T21:10:13.488Z,15.43
2017-12-05T21:12:41.880Z,18.13
2017-12-05T21:15:10.198Z,21.13
2017-12-05T21:17:39.208Z,17.37
2017-12-05T21:20:07.507Z,16.60
2017-12-05T21:22:35.982Z,17.43
2017-12-05T21:25:04.313Z,15.67
2017-12-05T21:27:33.399Z,16.77
2017-12-05T21:30:01.875Z,16.27
2017-12-05T21:32:30.127Z,16.00
2017-12-05T21:34:58.494Z,14.90
2017-12-05T21:37:26.844Z,14.33
2017-12-05T21:39:55.237Z,14.70
2017-12-05T21:42:23.477Z,13.13
2017-12-05T21:44:52.635Z,14.50
2017-12-05T21:47:20.960Z,14.10
2017-12-05T21:49:49.245Z,14.10
2017-12-05T21:52:17.661Z,12.67
2017-12-05T21:54:45.907Z,13.93
2017-12-05T21:57:14.152Z,13.87
2017-12-05T21:59:43.287Z,13.97
2017-12-05T22:02:11.619Z,13.63
2017-12-05T22:04:40.647Z,13.30
2017-12-05T22:07:08.982Z,16.33
2017-12-05T22:09:38.635Z,15.73
2017-12-05T22:12:06.924Z,12.43
2017-12-05T22:14:35.991Z,13.10
2017-12-05T22:17:04.273Z,15.17
2017-12-05T22:19:32.537Z,13.77
2017-12-05T22:22:00.857Z,13.07
2017-12-05T22:24:29.177Z,12.53
2017-12-05T22:26:58.364Z,13.50
2017-12-05T22:29:26.606Z,12.90
2017-12-05T22:31:54.887Z,11.47
2017-12-05T22:34:23.285Z,12.70
2017-12-05T22:36:51.517Z,12.53
2017-12-05T22:39:19.760Z,10.70
2017-12-05T22:41:48.816Z,12.13
2017-12-05T22:44:17.139Z,11.20
2017-12-05T22:46:46.162Z,11.77
2017-12-05T22:49:14.459Z,11.93
2017-12-05T22:51:42.719Z,13.50
2017-12-05T22:54:10.976Z,11.77
2017-12-05T22:56:39.283Z,11.50
2017-12-05T22:59:07.549Z,12.10
2017-12-05T23:01:51.821Z,10.17
2017-12-05T23:04:31.759Z,11.70
2017-12-05T23:07:00.194Z,13.47
2017-12-05T23:09:28.494Z,11.30
2017-12-05T23:11:56.756Z,12.20
2017-12-05T23:14:25.040Z,11.40
2017-12-05T23:16:53.300Z,12.30
2017-12-05T23:19:21.650Z,12.10
2017-12-05T23:21:49.875Z,12.00
2017-12-05T23:24:18.112Z,12.80
2017-12-05T23:26:47.203Z,11.30
2017-12-05T23:29:15.482Z,11.97
2017-12-05T23:31:44.521Z,13.67
2017-12-05T23:34:12.849Z,12.97
2017-12-05T23:36:41.095Z,12.93
2017-12-05T23:39:09.470Z,12.67
2017-12-05T23:41:37.818Z,12.23
2017-12-05T23:44:06.053Z,13.00
2017-12-05T23:46:35.066Z,13.67
2017-12-05T23:49:03.362Z,12.50
2017-12-05T23:51:31.674Z,12.17
2017-12-05T23:53:59.978Z,13.90
2017-12-05T23:56:29.007Z,12.70
2017-12-05T23:58:57.344Z,12.53
